Time;durP1;ratioP1;P1;durP2;ratioP2;P2;SDS_P1;SDS_P2;PMS_P1;PMS_P2;Temp;Humidity;BMP_temperature;BMP_pressure;BME280_temperature;BME280_humidity;BME280_pressure;Samples;Min_cycle;Max_cycle;Signal;HPM_P1;HPM_P2
2022/05/23 00:02:12;;;;;;;0.38;0.20;;;16.90;62.30;;;;;;4984585;28;20075;-76
2022/05/23 00:04:38;;;;;;;0.30;0.30;;;17.00;62.40;;;;;;4992319;28;20090;-76
2022/05/23 00:07:14;;;;;;;0.38;0.30;;;16.90;62.50;;;;;;4974459;28;20078;-76
2022/05/23 00:09:40;;;;;;;0.77;0.40;;;16.90;62.50;;;;;;4991394;28;20054;-76
2022/05/23 00:12:06;;;;;;;0.70;0.30;;;16.80;62.50;;;;;;4987927;28;20038;-76
2022/05/23 00:14:32;;;;;;;0.20;0.20;;;16.80;62.70;;;;;;4990673;28;20039;-76
2022/05/23 00:16:58;;;;;;;0.38;0.30;;;16.80;62.70;;;;;;4988919;28;20132;-75
2022/05/23 00:19:25;;;;;;;0.70;0.40;;;16.80;62.90;;;;;;4991582;28;20053;-76
2022/05/23 00:21:51;;;;;;;0.25;0.25;;;16.70;62.90;;;;;;4991797;28;20054;-74
2022/05/23 00:24:18;;;;;;;0.35;0.28;;;16.70;63.00;;;;;;4991536;28;20110;-76
2022/05/23 00:26:46;;;;;;;0.32;0.20;;;16.70;63.70;;;;;;4992362;28;20046;-76
2022/05/23 00:29:12;;;;;;;1.20;0.50;;;16.70;63.10;;;;;;4985479;28;20034;-76
2022/05/23 00:35:17;;;;;;;0.65;0.38;;;16.70;63.20;;;;;;4987300;28;20046;-75
2022/05/23 00:37:05;;;;;;;0.30;0.30;;;16.60;63.20;;;;;;4991226;28;20045;-76
2022/05/23 00:39:30;;;;;;;0.28;0.28;;;16.60;63.30;;;;;;4992160;28;20053;-76
2022/05/23 00:44:36;;;;;;;0.20;0.20;;;16.50;63.40;;;;;;4991799;28;20132;-76
2022/05/23 00:47:16;;;;;;;1.30;0.32;;;16.50;63.50;;;;;;4991862;28;20049;-75
2022/05/23 00:49:42;;;;;;;0.32;0.30;;;16.50;63.60;;;;;;4991966;28;20134;-76
2022/05/23 00:52:16;;;;;;;0.30;0.30;;;16.40;63.60;;;;;;4989659;28;20058;-76
2022/05/23 00:54:46;;;;;;;0.20;0.20;;;16.50;63.70;;;;;;4990932;28;20062;-76
2022/05/23 00:57:15;;;;;;;0.20;0.20;;;16.40;63.70;;;;;;4991427;28;20046;-76
2022/05/23 00:59:41;;;;;;;0.22;0.22;;;16.40;63.70;;;;;;4991287;28;20053;-76
2022/05/23 01:02:10;;;;;;;0.30;0.30;;;16.40;63.80;;;;;;4991589;28;20106;-76
2022/05/23 01:04:38;;;;;;;0.22;0.22;;;16.40;63.80;;;;;;4989671;28;20493;-76
2022/05/23 01:07:04;;;;;;;0.65;0.40;;;16.40;63.80;;;;;;4990710;28;20038;-76
2022/05/23 01:09:30;;;;;;;0.20;0.20;;;16.40;63.90;;;;;;4991845;28;20054;-76
2022/05/23 01:11:58;;;;;;;0.30;0.30;;;16.30;63.80;;;;;;4992125;28;20050;-76
2022/05/23 01:14:24;;;;;;;1.08;0.50;;;16.30;63.80;;;;;;4990268;28;20061;-76
2022/05/23 01:16:51;;;;;;;0.38;0.30;;;16.30;63.80;;;;;;4989411;28;20043;-76
2022/05/23 01:19:17;;;;;;;0.22;0.22;;;16.30;63.90;;;;;;4991170;28;20047;-76
2022/05/23 01:22:03;;;;;;;1.13;0.57;;;16.30;63.90;;;;;;4991135;28;20050;-76
2022/05/23 01:24:41;;;;;;;0.60;0.43;;;16.20;64.00;;;;;;4993070;28;20050;-76
2022/05/23 01:27:07;;;;;;;1.27;0.28;;;16.30;64.10;;;;;;4993896;28;20057;-76
2022/05/23 01:29:32;;;;;;;1.02;0.40;;;16.20;64.10;;;;;;4991806;28;20046;-76
2022/05/23 01:31:59;;;;;;;0.30;0.30;;;16.20;64.10;;;;;;4991999;28;20066;-76
2022/05/23 01:34:26;;;;;;;0.32;0.32;;;16.20;64.10;;;;;;4989944;28;20054;-76
2022/05/23 01:36:53;;;;;;;0.20;0.20;;;16.20;64.30;;;;;;4990653;28;20046;-76
2022/05/23 01:39:19;;;;;;;0.43;0.40;;;16.10;64.30;;;;;;4991361;28;20039;-76
2022/05/23 01:41:46;;;;;;;0.20;0.20;;;16.10;64.40;;;;;;4992264;28;20039;-76
2022/05/23 01:44:12;;;;;;;0.52;0.20;;;16.10;64.50;;;;;;4992248;28;20026;-76
2022/05/23 01:46:38;;;;;;;0.20;0.20;;;16.10;64.60;;;;;;4992868;28;20098;-76
2022/05/23 01:49:04;;;;;;;0.32;0.32;;;16.00;64.60;;;;;;4991171;28;20047;-76
2022/05/23 01:51:30;;;;;;;0.32;0.30;;;16.00;64.60;;;;;;4990446;28;20050;-76
2022/05/23 01:53:55;;;;;;;0.38;0.20;;;16.00;64.70;;;;;;4992164;28;20057;-76
2022/05/23 01:56:21;;;;;;;0.28;0.28;;;16.00;64.70;;;;;;4991380;28;20066;-76
2022/05/23 02:01:26;;;;;;;0.30;0.30;;;16.00;64.80;;;;;;4992504;28;20042;-76
2022/05/23 02:03:52;;;;;;;0.40;0.35;;;16.00;65.40;;;;;;4991731;28;20039;-75
2022/05/23 02:06:18;;;;;;;0.55;0.40;;;15.90;64.80;;;;;;4991486;28;20053;-76
2022/05/23 02:08:43;;;;;;;0.30;0.30;;;15.90;64.80;;;;;;4990398;28;20047;-76
2022/05/23 02:11:09;;;;;;;0.38;0.38;;;15.90;64.90;;;;;;4992341;28;20045;-76
2022/05/23 02:13:40;;;;;;;0.47;0.40;;;15.90;64.90;;;;;;4992151;28;20106;-76
2022/05/23 02:16:06;;;;;;;0.20;0.20;;;15.90;65.00;;;;;;4991646;28;20098;-76
2022/05/23 02:18:32;;;;;;;0.40;0.22;;;15.80;65.10;;;;;;4990998;28;20050;-76
2022/05/23 02:20:58;;;;;;;0.20;0.20;;;15.80;65.20;;;;;;4991149;28;20091;-76
2022/05/23 02:23:24;;;;;;;0.75;0.20;;;15.80;65.30;;;;;;4992031;28;20062;-76
2022/05/23 02:25:51;;;;;;;0.30;0.30;;;15.70;65.30;;;;;;4991310;28;20027;-75
2022/05/23 02:28:18;;;;;;;0.20;0.20;;;15.70;65.40;;;;;;4991114;28;20042;-77
2022/05/23 02:30:47;;;;;;;0.82;0.50;;;15.70;65.50;;;;;;4991503;28;20098;-76
2022/05/23 02:33:15;;;;;;;0.20;0.20;;;15.70;65.50;;;;;;4989186;28;20046;-76
2022/05/23 02:35:41;;;;;;;0.40;0.40;;;15.70;65.50;;;;;;4991427;28;20050;-76
2022/05/23 02:38:06;;;;;;;0.30;0.28;;;15.60;65.50;;;;;;4991942;28;20120;-76
2022/05/23 02:40:32;;;;;;;0.40;0.30;;;15.70;65.50;;;;;;4990868;28;20062;-76
2022/05/23 02:42:58;;;;;;;0.85;0.30;;;15.60;65.50;;;;;;4989664;28;20047;-76
2022/05/23 02:45:24;;;;;;;0.28;0.25;;;15.80;65.60;;;;;;4987049;28;20053;-76
2022/05/23 02:47:51;;;;;;;0.28;0.22;;;15.70;65.60;;;;;;4987324;28;20050;-76
2022/05/23 02:50:17;;;;;;;0.22;0.22;;;15.60;65.60;;;;;;4971510;28;20236;-77
2022/05/23 02:52:44;;;;;;;0.38;0.38;;;15.70;65.70;;;;;;4971078;28;20047;-76
2022/05/23 02:55:10;;;;;;;0.50;0.50;;;15.60;65.70;;;;;;4990636;28;20039;-76
2022/05/23 02:57:36;;;;;;;0.30;0.20;;;15.60;65.80;;;;;;4990439;28;20058;-76
2022/05/23 03:00:06;;;;;;;0.40;0.30;;;15.60;65.80;;;;;;4990608;28;20114;-76
2022/05/23 03:05:09;;;;;;;0.22;0.22;;;15.60;65.90;;;;;;4994870;28;20045;-76
2022/05/23 03:07:35;;;;;;;0.22;0.20;;;15.50;65.80;;;;;;4994427;28;20046;-76
2022/05/23 03:10:01;;;;;;;0.30;0.30;;;15.60;65.90;;;;;;4992417;28;20106;-76
2022/05/23 03:12:28;;;;;;;0.32;0.30;;;15.60;66.00;;;;;;4994134;28;20146;-76
2022/05/23 03:14:54;;;;;;;0.30;0.30;;;15.50;66.00;;;;;;4993992;28;20106;-76
2022/05/23 03:17:20;;;;;;;0.45;0.20;;;15.50;66.20;;;;;;4994980;28;20101;-76
2022/05/23 03:19:45;;;;;;;0.30;0.30;;;15.50;66.10;;;;;;4992575;28;20050;-76
2022/05/23 03:27:33;;;;;;;0.22;0.22;;;15.50;66.20;;;;;;4992117;28;20061;-76
2022/05/23 03:29:59;;;;;;;0.40;0.38;;;15.50;66.20;;;;;;4995719;28;20114;-77
2022/05/23 03:32:25;;;;;;;0.65;0.22;;;15.60;66.40;;;;;;4996496;28;20038;-77
2022/05/23 03:34:51;;;;;;;0.22;0.22;;;15.50;66.40;;;;;;4998086;28;20055;-76
2022/05/23 03:37:17;;;;;;;0.30;0.30;;;15.50;66.40;;;;;;4997590;28;20061;-76
2022/05/23 03:39:43;;;;;;;0.30;0.30;;;15.40;66.40;;;;;;4998211;28;20034;-76
2022/05/23 03:42:09;;;;;;;0.80;0.30;;;15.50;66.50;;;;;;4997630;28;20043;-76
2022/05/23 03:44:36;;;;;;;0.98;0.35;;;15.50;66.50;;;;;;4998559;28;20050;-76
2022/05/23 03:47:03;;;;;;;0.30;0.30;;;15.40;66.50;;;;;;4998982;28;20038;-77
2022/05/23 03:49:30;;;;;;;0.30;0.30;;;15.40;66.60;;;;;;4997691;28;20035;-76
2022/05/23 03:51:56;;;;;;;0.47;0.30;;;15.40;66.60;;;;;;4998573;28;20932;-77
2022/05/23 03:54:22;;;;;;;0.63;0.30;;;15.50;66.70;;;;;;4994133;28;20074;-77
2022/05/23 03:56:47;;;;;;;0.20;0.20;;;15.40;66.60;;;;;;4993578;28;20062;-77
2022/05/23 03:59:14;;;;;;;0.50;0.50;;;15.40;66.60;;;;;;4988627;28;20046;-76
2022/05/23 04:01:40;;;;;;;0.30;0.30;;;15.40;66.70;;;;;;4974558;28;20042;-77
2022/05/23 04:04:06;;;;;;;0.30;0.28;;;15.40;66.80;;;;;;4995737;28;20041;-77
2022/05/23 04:06:32;;;;;;;0.30;0.30;;;15.40;66.80;;;;;;4998301;28;20050;-78
2022/05/23 04:08:58;;;;;;;0.73;0.40;;;15.40;66.80;;;;;;4981812;28;20054;-78
2022/05/23 04:11:24;;;;;;;0.43;0.43;;;15.40;66.80;;;;;;4992351;28;20047;-75
2022/05/23 04:13:50;;;;;;;0.40;0.40;;;15.40;66.90;;;;;;4996813;28;20030;-77
2022/05/23 04:16:15;;;;;;;0.35;0.30;;;15.40;67.00;;;;;;4999707;28;20054;-78
2022/05/23 04:18:41;;;;;;;0.20;0.20;;;15.40;67.00;;;;;;4998979;28;20034;-78
2022/05/23 04:21:07;;;;;;;0.40;0.30;;;15.40;67.00;;;;;;4992599;28;20070;-77
2022/05/23 04:23:32;;;;;;;0.40;0.40;;;15.40;67.00;;;;;;4996172;28;20074;-78
2022/05/23 04:26:03;;;;;;;0.73;0.38;;;15.40;67.10;;;;;;4994446;28;20066;-77
2022/05/23 04:28:30;;;;;;;0.30;0.30;;;15.40;67.10;;;;;;4993257;28;20051;-75
2022/05/23 04:30:55;;;;;;;0.47;0.47;;;15.50;67.10;;;;;;4979666;28;20477;-77
2022/05/23 04:35:58;;;;;;;0.85;0.43;;;15.50;67.10;;;;;;4993876;28;20090;-78
2022/05/23 04:38:24;;;;;;;0.40;0.40;;;15.50;67.20;;;;;;4998406;28;20414;-78
2022/05/23 04:40:50;;;;;;;1.33;0.60;;;15.50;67.20;;;;;;4997369;28;20043;-77
2022/05/23 04:43:16;;;;;;;0.43;0.43;;;15.50;67.20;;;;;;4992165;28;20089;-76
2022/05/23 04:45:42;;;;;;;0.40;0.40;;;15.50;67.20;;;;;;4993744;28;20051;-76
2022/05/23 04:50:49;;;;;;;0.40;0.33;;;15.50;67.30;;;;;;4986798;28;20050;-76
2022/05/23 04:53:16;;;;;;;0.70;0.40;;;15.60;67.40;;;;;;4992307;28;20270;-76
2022/05/23 04:55:43;;;;;;;1.00;0.50;;;15.60;67.40;;;;;;4991061;28;20058;-76
2022/05/23 04:58:10;;;;;;;0.50;0.50;;;15.60;68.00;;;;;;4992112;28;20035;-76
2022/05/23 05:00:39;;;;;;;0.35;0.35;;;15.60;67.30;;;;;;4984289;28;20078;-76
2022/05/23 05:03:05;;;;;;;0.45;0.45;;;15.70;67.30;;;;;;4991446;28;20039;-76
2022/05/23 05:05:33;;;;;;;0.50;0.40;;;15.70;67.20;;;;;;4991528;28;20051;-76
2022/05/23 05:08:00;;;;;;;0.30;0.30;;;15.70;67.20;;;;;;4985581;28;20043;-76
2022/05/23 05:10:26;;;;;;;0.50;0.50;;;15.80;67.20;;;;;;4983518;28;20054;-76
2022/05/23 05:12:53;;;;;;;0.60;0.50;;;15.80;67.20;;;;;;4989414;28;20078;-77
2022/05/23 05:15:19;;;;;;;0.40;0.40;;;15.90;67.30;;;;;;4989877;28;20061;-77
2022/05/23 05:17:45;;;;;;;0.63;0.50;;;15.90;67.30;;;;;;4993527;28;20059;-78
2022/05/23 05:20:13;;;;;;;0.50;0.50;;;15.90;67.20;;;;;;4966779;28;20066;-78
2022/05/23 05:22:39;;;;;;;0.90;0.60;;;16.00;67.30;;;;;;4961190;28;20042;-76
2022/05/23 05:25:07;;;;;;;1.48;0.50;;;16.00;67.30;;;;;;4959987;28;20058;-76
2022/05/23 05:27:34;;;;;;;0.70;0.70;;;16.00;67.20;;;;;;4994239;28;20047;-77
2022/05/23 05:30:00;;;;;;;1.00;0.60;;;16.10;67.20;;;;;;4993480;28;20066;-78
2022/05/23 05:32:42;;;;;;;0.60;0.57;;;16.20;67.20;;;;;;4995974;28;20031;-76
2022/05/23 05:35:24;;;;;;;0.30;0.30;;;16.20;67.20;;;;;;4985615;28;20047;-76
2022/05/23 05:37:58;;;;;;;0.40;0.40;;;16.30;67.10;;;;;;4990784;28;20066;-76
2022/05/23 05:40:27;;;;;;;0.47;0.47;;;16.30;67.10;;;;;;4968004;28;20074;-77
2022/05/23 05:43:00;;;;;;;0.60;0.40;;;16.40;67.00;;;;;;4987797;28;20056;-77
2022/05/23 05:45:33;;;;;;;0.50;0.50;;;16.50;66.90;;;;;;4991273;28;20571;-77
2022/05/23 05:47:59;;;;;;;0.55;0.50;;;16.60;66.80;;;;;;4994590;28;20058;-77
2022/05/23 05:50:30;;;;;;;0.63;0.60;;;16.70;66.80;;;;;;4992662;28;20078;-77
2022/05/23 05:52:59;;;;;;;1.02;0.75;;;16.80;66.70;;;;;;4992902;28;20043;-76
2022/05/23 05:55:25;;;;;;;0.50;0.50;;;16.80;66.60;;;;;;4994153;28;20051;-76
2022/05/23 05:57:51;;;;;;;0.63;0.63;;;17.00;66.60;;;;;;4993103;28;20527;-76
2022/05/23 06:00:18;;;;;;;0.50;0.50;;;17.00;66.50;;;;;;4988962;28;20031;-76
2022/05/23 06:02:44;;;;;;;0.63;0.63;;;17.10;66.40;;;;;;4991649;28;20019;-76
2022/05/23 06:05:10;;;;;;;0.47;0.47;;;17.10;66.40;;;;;;4992952;28;20145;-77
2022/05/23 06:12:56;;;;;;;0.80;0.60;;;17.20;66.50;;;;;;4993555;28;20078;-76
2022/05/23 06:15:22;;;;;;;0.40;0.40;;;17.30;66.60;;;;;;4993968;28;20034;-76
2022/05/23 06:17:48;;;;;;;0.55;0.55;;;17.30;67.20;;;;;;4992912;28;20469;-77
2022/05/23 06:20:15;;;;;;;0.50;0.50;;;17.40;66.70;;;;;;4990440;28;20137;-76
2022/05/23 06:22:41;;;;;;;0.40;0.40;;;17.40;66.70;;;;;;4988659;28;20061;-75
2022/05/23 06:25:14;;;;;;;0.93;0.60;;;17.50;66.70;;;;;;4994041;28;20038;-78
2022/05/23 06:27:40;;;;;;;0.88;0.70;;;17.40;66.70;;;;;;4996380;28;20025;-77
2022/05/23 06:30:09;;;;;;;1.05;0.68;;;17.60;66.80;;;;;;4995275;28;20062;-77
2022/05/23 06:32:36;;;;;;;0.93;0.60;;;17.60;66.70;;;;;;4998160;28;20054;-77
2022/05/23 06:35:07;;;;;;;0.38;0.38;;;17.70;66.80;;;;;;4994258;28;20464;-77
2022/05/23 06:37:35;;;;;;;0.60;0.60;;;17.80;66.80;;;;;;4990468;28;20503;-75
2022/05/23 06:40:39;;;;;;;0.80;0.80;;;17.80;66.70;;;;;;4992910;28;20041;-75
2022/05/23 06:43:14;;;;;;;2.20;0.90;;;17.90;66.70;;;;;;4901224;29;20048;-75
2022/05/23 06:46:03;;;;;;;1.13;0.80;;;18.00;66.70;;;;;;4872536;29;20037;-76
2022/05/23 06:48:37;;;;;;;1.17;0.77;;;18.20;66.80;;;;;;4900524;29;20060;-76
2022/05/23 06:51:40;;;;;;;2.15;0.70;;;18.20;66.70;;;;;;4893804;29;20531;-75
2022/05/23 06:58:15;;;;;;;0.85;0.77;;;18.30;66.50;;;;;;4723916;30;20580;-76
2022/05/23 07:00:43;;;;;;;0.57;0.55;;;18.50;66.50;;;;;;4705058;30;20191;-76
2022/05/23 07:03:19;;;;;;;1.50;0.70;;;18.60;66.30;;;;;;4660403;30;20058;-76
2022/05/23 07:14:02;;;;;;;0.53;0.53;;;19.20;65.90;;;;;;4655468;30;20062;-76
2022/05/23 07:16:39;;;;;;;0.60;0.60;;;19.30;65.60;;;;;;4664676;30;20306;-76
2022/05/23 07:19:05;;;;;;;0.50;0.50;;;19.50;65.40;;;;;;4664157;30;20042;-76
2022/05/23 07:21:35;;;;;;;0.70;0.52;;;19.60;65.10;;;;;;4664251;30;20070;-78
2022/05/23 07:24:06;;;;;;;0.70;0.70;;;19.90;65.00;;;;;;4665001;30;20050;-77
2022/05/23 07:26:39;;;;;;;0.82;0.60;;;20.00;64.90;;;;;;4663992;30;20058;-77
2022/05/23 07:29:19;;;;;;;0.95;0.60;;;20.10;64.80;;;;;;4696609;30;20053;-77
2022/05/23 07:31:45;;;;;;;0.50;0.50;;;20.40;64.80;;;;;;4760486;30;20051;-78
2022/05/23 07:34:11;;;;;;;0.68;0.68;;;20.60;64.50;;;;;;4785015;29;20057;-78
2022/05/23 07:36:36;;;;;;;0.77;0.57;;;20.70;64.20;;;;;;4878805;29;20068;-78
2022/05/23 07:39:02;;;;;;;0.77;0.75;;;20.80;64.00;;;;;;4935136;29;20151;-79
2022/05/23 07:41:28;;;;;;;0.70;0.70;;;20.90;63.90;;;;;;4946561;28;20039;-77
2022/05/23 07:43:53;;;;;;;0.85;0.60;;;21.00;63.90;;;;;;4977250;28;20048;-78
2022/05/23 07:46:19;;;;;;;0.75;0.63;;;21.00;64.10;;;;;;4956225;28;20039;-79
2022/05/23 07:48:47;;;;;;;0.68;0.68;;;21.00;64.20;;;;;;4955912;28;20047;-78
2022/05/23 07:51:15;;;;;;;0.50;0.50;;;21.20;64.40;;;;;;4954465;28;20047;-77
2022/05/23 08:01:45;;;;;;;1.25;0.80;;;21.20;64.50;;;;;;4957266;28;20098;-77
2022/05/23 08:04:11;;;;;;;1.35;0.82;;;21.20;65.10;;;;;;4970672;28;20039;-77
2022/05/23 08:06:37;;;;;;;0.95;0.57;;;21.20;64.50;;;;;;4956010;28;20032;-77
2022/05/23 08:09:03;;;;;;;0.80;0.80;;;21.30;64.60;;;;;;4955686;28;20062;-76
2022/05/23 08:11:29;;;;;;;0.73;0.60;;;21.30;64.60;;;;;;4957309;28;20039;-76
2022/05/23 08:13:55;;;;;;;0.98;0.60;;;21.30;64.60;;;;;;4956150;28;20126;-76
2022/05/23 08:16:22;;;;;;;0.52;0.52;;;21.40;64.60;;;;;;4955397;28;20054;-76
2022/05/23 08:18:47;;;;;;;0.60;0.60;;;21.50;64.50;;;;;;4956083;28;20070;-77
2022/05/23 08:21:15;;;;;;;2.25;0.73;;;21.70;64.30;;;;;;4957746;28;20082;-78
2022/05/23 08:23:42;;;;;;;0.50;0.50;;;22.00;63.90;;;;;;4973702;28;20042;-78
2022/05/23 08:26:08;;;;;;;0.63;0.60;;;22.20;64.10;;;;;;4974571;28;20042;-78
2022/05/23 08:28:34;;;;;;;0.77;0.50;;;22.30;63.20;;;;;;4974824;28;20066;-77
2022/05/23 08:31:00;;;;;;;0.60;0.60;;;22.50;62.90;;;;;;4974748;28;20136;-76
2022/05/23 08:33:26;;;;;;;0.75;0.52;;;22.80;62.80;;;;;;4973285;28;20051;-76
2022/05/23 08:35:52;;;;;;;0.50;0.50;;;23.10;62.30;;;;;;4973238;28;20551;-78
2022/05/23 08:38:20;;;;;;;0.52;0.52;;;23.40;62.00;;;;;;4974842;28;20146;-80
2022/05/23 08:41:00;;;;;;;0.60;0.55;;;23.40;61.60;;;;;;4961203;28;20097;-78
2022/05/23 08:43:30;;;;;;;0.67;0.67;;;23.50;61.70;;;;;;4993907;28;20085;-78
2022/05/23 08:45:58;;;;;;;0.73;0.52;;;23.50;61.80;;;;;;4994409;28;20847;-78
2022/05/23 08:48:37;;;;;;;0.90;0.70;;;23.50;62.00;;;;;;4958039;28;20031;-78
2022/05/23 08:51:15;;;;;;;1.10;0.70;;;23.50;62.30;;;;;;4973192;28;20046;-77
2022/05/23 08:53:56;;;;;;;0.90;0.60;;;23.30;62.70;;;;;;4974942;28;20042;-77
2022/05/23 08:56:40;;;;;;;0.43;0.43;;;23.20;63.20;;;;;;4995150;28;20546;-78
2022/05/23 08:59:27;;;;;;;0.43;0.40;;;23.20;63.40;;;;;;4976078;28;20034;-77
2022/05/23 09:02:04;;;;;;;0.63;0.63;;;23.20;63.50;;;;;;4993228;28;20077;-79
2022/05/23 09:04:46;;;;;;;0.50;0.45;;;22.90;63.50;;;;;;4993824;28;20109;-79
2022/05/23 09:07:21;;;;;;;2.28;0.80;;;23.10;63.70;;;;;;4975352;28;20126;-79
2022/05/23 09:09:47;;;;;;;0.63;0.63;;;23.00;63.70;;;;;;4976076;28;20500;-79
2022/05/23 09:12:15;;;;;;;1.52;0.70;;;23.00;64.00;;;;;;4976686;28;20038;-78
2022/05/23 09:14:41;;;;;;;0.70;0.70;;;22.90;64.00;;;;;;4976557;28;20504;-78
2022/05/23 09:17:21;;;;;;;0.60;0.47;;;22.90;64.10;;;;;;4978145;28;20061;-79
2022/05/23 09:20:00;;;;;;;1.58;0.57;;;22.90;64.10;;;;;;4974265;28;20046;-79
2022/05/23 09:22:51;;;;;;;0.70;0.52;;;22.90;64.20;;;;;;4974908;28;20045;-78
2022/05/23 09:25:22;;;;;;;1.23;0.65;;;22.80;64.10;;;;;;4974413;28;20054;-78
2022/05/23 09:28:07;;;;;;;0.63;0.63;;;22.90;64.20;;;;;;4974071;28;20049;-78
2022/05/23 09:30:35;;;;;;;0.77;0.55;;;23.00;64.10;;;;;;4974143;28;20038;-76
2022/05/23 09:33:18;;;;;;;0.60;0.45;;;23.00;64.10;;;;;;4972034;28;20061;-76
2022/05/23 09:35:50;;;;;;;1.40;0.60;;;23.10;64.00;;;;;;4975062;28;20051;-76
2022/05/23 09:38:20;;;;;;;0.93;0.60;;;23.10;63.80;;;;;;4974387;28;20042;-77
2022/05/23 09:40:49;;;;;;;1.40;0.77;;;23.30;63.70;;;;;;4974764;28;20053;-76
2022/05/23 09:49:04;;;;;;;0.93;0.85;;;23.30;63.10;;;;;;4973587;28;20129;-78
2022/05/23 09:51:31;;;;;;;0.80;0.80;;;23.30;63.10;;;;;;4935010;29;20073;-77
2022/05/23 09:54:01;;;;;;;0.90;0.75;;;23.30;63.10;;;;;;4933691;28;20047;-80
2022/05/23 09:56:40;;;;;;;0.60;0.55;;;23.20;63.30;;;;;;4934783;29;20051;-78
2022/05/23 09:59:18;;;;;;;0.70;0.60;;;23.10;63.40;;;;;;4950644;29;20078;-77
2022/05/23 10:01:46;;;;;;;0.65;0.60;;;23.10;63.50;;;;;;4952256;29;20172;-77
2022/05/23 10:04:17;;;;;;;0.82;0.50;;;23.10;63.60;;;;;;4952091;28;20043;-77
2022/05/23 10:06:48;;;;;;;1.02;0.55;;;23.20;63.50;;;;;;4951325;29;20549;-77
2022/05/23 10:09:33;;;;;;;0.55;0.52;;;23.20;63.50;;;;;;4950166;28;20047;-77
2022/05/23 10:12:04;;;;;;;0.57;0.57;;;23.20;63.30;;;;;;4951202;28;20418;-77
2022/05/23 10:14:43;;;;;;;0.70;0.60;;;23.30;63.40;;;;;;4935502;29;20054;-77
2022/05/23 10:17:24;;;;;;;1.05;0.50;;;23.20;63.40;;;;;;4951540;29;20044;-77
2022/05/23 10:19:53;;;;;;;0.65;0.65;;;23.20;63.60;;;;;;4951587;28;20031;-77
2022/05/23 10:22:26;;;;;;;0.70;0.68;;;23.20;63.60;;;;;;4960070;28;20058;-77
2022/05/23 10:24:59;;;;;;;0.50;0.50;;;23.10;63.40;;;;;;4966212;28;20047;-75
2022/05/23 10:27:36;;;;;;;1.10;0.52;;;23.20;63.30;;;;;;4940369;28;20052;-76
2022/05/23 10:30:06;;;;;;;0.88;0.63;;;23.30;63.30;;;;;;4933720;28;20036;-77
2022/05/23 10:32:41;;;;;;;0.57;0.57;;;23.30;63.20;;;;;;4942048;28;20039;-77
2022/05/23 10:35:21;;;;;;;1.23;0.70;;;23.40;63.10;;;;;;4946512;28;20051;-77
2022/05/23 10:37:47;;;;;;;;;;;23.50;62.90;;;;;;4968164;28;20482;-77
2022/05/23 10:43:03;;;;;;;;;;;23.70;62.50;;;;;;4951957;29;20047;-77
2022/05/23 10:45:54;;;;;;;0.90;0.75;;;23.80;62.10;;;;;;4933975;28;19973;-75
2022/05/23 10:48:39;;;;;;;0.80;0.55;;;23.80;61.90;;;;;;4951527;28;20115;-77
2022/05/23 10:51:43;;;;;;;0.70;0.60;;;23.90;62.10;;;;;;4933084;28;20046;-76
2022/05/23 10:54:38;;;;;;;1.77;0.73;;;23.80;62.10;;;;;;4970828;28;20477;-76
2022/05/23 10:57:31;;;;;;;0.45;0.45;;;23.80;62.20;;;;;;4983660;28;20424;-77
2022/05/23 11:00:06;;;;;;;1.00;0.60;;;23.70;62.40;;;;;;4976057;28;20043;-76
2022/05/23 11:02:52;;;;;;;0.88;0.65;;;23.70;62.60;;;;;;4975383;28;20042;-77
2022/05/23 11:05:27;;;;;;;0.77;0.63;;;23.70;62.70;;;;;;4977543;28;20070;-75
2022/05/23 11:08:33;;;;;;;0.50;0.50;;;23.70;62.80;;;;;;4974095;28;20047;-76
2022/05/23 11:11:20;;;;;;;0.52;0.50;;;23.60;62.70;;;;;;4984582;28;20055;-77
2022/05/23 11:14:08;;;;;;;1.45;0.70;;;23.60;62.80;;;;;;4974537;28;20047;-76
2022/05/23 11:16:53;;;;;;;1.42;0.80;;;23.70;62.80;;;;;;4962253;28;20062;-78
2022/05/23 11:19:40;;;;;;;0.70;0.70;;;23.80;62.60;;;;;;4984754;28;20039;-77
2022/05/23 11:22:17;;;;;;;0.63;0.60;;;23.90;62.30;;;;;;4974932;28;20511;-77
2022/05/23 11:25:12;;;;;;;0.60;0.60;;;24.10;62.00;;;;;;4975712;28;20050;-77
2022/05/23 11:43:33;;;;;;;1.02;0.77;;;25.40;60.20;;;;;;4809236;29;20064;-77
2022/05/23 11:46:02;;;;;;;1.08;0.60;;;25.40;60.40;;;;;;4834775;29;20057;-76
2022/05/23 11:48:52;;;;;;;0.50;0.40;;;25.30;60.40;;;;;;4850092;29;20049;-76
2022/05/23 11:51:31;;;;;;;0.90;0.50;;;25.30;60.60;;;;;;4861469;29;20077;-76
2022/05/23 11:54:49;;;;;;;0.50;0.50;;;25.30;60.70;;;;;;4862066;29;20053;-77
2022/05/23 11:57:39;;;;;;;0.60;0.60;;;25.40;60.40;;;;;;4874875;29;20125;-76
2022/05/23 12:00:33;;;;;;;0.60;0.60;;;25.60;60.20;;;;;;4861087;29;20040;-76
2022/05/23 12:03:08;;;;;;;0.73;0.50;;;25.40;60.10;;;;;;4860515;29;20034;-76
2022/05/23 12:05:34;;;;;;;0.98;0.47;;;25.50;60.20;;;;;;4846806;29;20051;-76
2022/05/23 12:08:04;;;;;;;0.50;0.50;;;25.50;60.20;;;;;;4863930;29;20045;-76
2022/05/23 12:10:52;;;;;;;0.50;0.50;;;25.60;60.10;;;;;;4881452;29;20036;-77
2022/05/23 12:13:39;;;;;;;0.93;0.50;;;25.70;60.00;;;;;;4902150;29;20448;-76
2022/05/23 12:16:27;;;;;;;0.45;0.40;;;25.80;59.80;;;;;;4937999;28;20050;-76
2022/05/23 12:19:21;;;;;;;1.13;0.50;;;25.80;59.70;;;;;;4986426;28;20039;-77
2022/05/23 12:21:48;;;;;;;0.40;0.40;;;26.00;59.70;;;;;;4978645;28;20058;-76
2022/05/23 12:24:52;;;;;;;0.70;0.50;;;26.00;59.60;;;;;;4987807;28;20038;-77
2022/05/23 12:30:37;;;;;;;0.82;0.50;;;25.80;59.70;;;;;;4923683;28;20070;-78
2022/05/23 12:33:11;;;;;;;0.85;0.55;;;25.70;59.90;;;;;;4929614;28;20043;-78
2022/05/23 12:35:57;;;;;;;0.50;0.50;;;25.70;60.10;;;;;;4965358;28;20555;-78
2022/05/23 12:38:43;;;;;;;0.60;0.60;;;25.70;60.10;;;;;;4964785;28;20059;-78
2022/05/23 12:41:39;;;;;;;0.40;0.40;;;25.80;60.20;;;;;;4948281;28;20115;-78
2022/05/23 12:44:33;;;;;;;0.45;0.45;;;25.80;60.10;;;;;;4947162;28;20651;-78
2022/05/23 12:47:11;;;;;;;0.47;0.47;;;25.80;60.20;;;;;;4946746;28;20106;-78
2022/05/23 12:49:55;;;;;;;1.65;0.50;;;25.70;60.10;;;;;;4947804;28;20082;-79
2022/05/23 12:52:46;;;;;;;0.40;0.40;;;25.70;60.10;;;;;;4965315;28;20051;-78
2022/05/23 12:55:21;;;;;;;;;;;25.60;60.10;;;;;;4963164;28;20043;-79
2022/05/23 12:58:20;;;;;;;0.40;0.40;;;25.70;60.40;;;;;;4963074;28;20404;-79
2022/05/23 13:01:03;;;;;;;0.50;0.50;;;25.60;60.40;;;;;;4974046;28;20042;-79
2022/05/23 13:03:49;;;;;;;0.52;0.40;;;25.60;60.50;;;;;;4985320;28;20066;-79
2022/05/23 13:06:23;;;;;;;0.40;0.40;;;25.30;60.60;;;;;;4983416;28;20392;-79
2022/05/23 13:08:55;;;;;;;0.65;0.50;;;25.40;60.90;;;;;;4982473;28;20126;-79
2022/05/23 13:15:27;;;;;;;0.90;0.57;;;25.30;61.10;;;;;;4911101;29;20051;-76
2022/05/23 13:25:11;;;;;;;0.40;0.40;;;25.10;61.30;;;;;;4848474;29;20061;-79
2022/05/23 13:27:45;;;;;;;0.40;0.40;;;24.90;61.60;;;;;;4823869;29;20887;-76
2022/05/23 13:30:24;;;;;;;0.32;0.32;;;24.80;61.70;;;;;;4834143;29;20172;-78
2022/05/23 13:33:26;;;;;;;0.70;0.50;;;24.70;61.80;;;;;;4851700;29;20078;-77
2022/05/23 13:35:58;;;;;;;0.38;0.35;;;24.70;61.90;;;;;;4836713;29;20053;-78
2022/05/23 13:38:27;;;;;;;0.40;0.40;;;24.60;61.90;;;;;;4834195;29;20049;-78
2022/05/23 13:40:58;;;;;;;0.60;0.60;;;24.50;62.00;;;;;;4821968;29;20079;-77
2022/05/23 13:43:31;;;;;;;0.85;0.50;;;24.50;62.10;;;;;;4823308;29;20091;-78
2022/05/23 13:46:18;;;;;;;2.42;0.50;;;24.40;62.10;;;;;;4858908;29;20033;-79
2022/05/23 13:48:50;;;;;;;1.73;0.65;;;24.30;62.30;;;;;;4860698;29;20049;-77
2022/05/23 13:51:21;;;;;;;0.60;0.50;;;24.30;62.30;;;;;;4880112;29;20064;-78
2022/05/23 13:53:57;;;;;;;0.70;0.50;;;24.30;62.40;;;;;;4874799;29;20055;-78
2022/05/23 13:56:46;;;;;;;0.57;0.50;;;24.20;62.40;;;;;;4892718;29;20057;-78
2022/05/23 13:59:20;;;;;;;1.00;0.50;;;24.10;62.40;;;;;;4878476;29;20064;-77
2022/05/23 14:01:53;;;;;;;1.05;0.50;;;24.00;62.50;;;;;;4954802;28;20090;-78
2022/05/23 14:04:27;;;;;;;0.70;0.50;;;24.00;62.60;;;;;;4971658;28;20114;-77
2022/05/23 14:06:58;;;;;;;1.23;0.63;;;24.00;62.70;;;;;;4974365;28;20046;-78
2022/05/23 14:09:25;;;;;;;0.85;0.70;;;23.90;62.80;;;;;;4974688;28;20047;-77
2022/05/23 14:11:54;;;;;;;0.85;0.50;;;23.80;62.80;;;;;;4972911;28;20097;-76
2022/05/23 14:14:38;;;;;;;0.60;0.55;;;23.70;63.00;;;;;;4972963;28;20050;-76
2022/05/23 14:17:16;;;;;;;0.70;0.68;;;23.70;63.10;;;;;;4973102;28;20030;-77
2022/05/23 14:19:49;;;;;;;0.65;0.60;;;23.70;63.30;;;;;;4974491;28;20393;-78
2022/05/23 14:22:25;;;;;;;0.63;0.60;;;23.60;63.30;;;;;;4973924;28;20493;-78
2022/05/23 14:24:53;;;;;;;0.68;0.50;;;23.60;63.30;;;;;;4975076;28;20030;-78
2022/05/23 14:27:48;;;;;;;0.43;0.43;;;23.70;63.30;;;;;;4967023;28;20055;-79
2022/05/23 14:30:37;;;;;;;0.55;0.50;;;23.60;63.40;;;;;;4987517;28;20042;-77
2022/05/23 14:33:15;;;;;;;0.55;0.47;;;23.60;63.30;;;;;;4957875;28;20069;-78
2022/05/23 14:36:04;;;;;;;0.80;0.52;;;23.60;63.40;;;;;;4971401;28;20400;-78
2022/05/23 14:38:44;;;;;;;1.10;0.80;;;23.60;63.40;;;;;;4973778;28;20045;-79
2022/05/23 14:41:21;;;;;;;0.57;0.57;;;23.50;63.40;;;;;;4970761;28;20093;-78